Time;durP1;ratioP1;P1;durP2;ratioP2;P2;SDS_P1;SDS_P2;PMS_P1;PMS_P2;Temp;Humidity;BMP_temperature;BMP_pressure;BME280_temperature;BME280_humidity;BME280_pressure;Samples;Min_cycle;Max_cycle;Signal;HPM_P1;HPM_P2
2024/03/21 00:00:10;;;;;;;28.52;18.15;;;13.30;92.40;;;;;;5037596;28;20025;-78
2024/03/21 00:02:38;;;;;;;29.13;18.10;;;13.30;92.50;;;;;;5034643;28;20456;-77
2024/03/21 00:05:06;;;;;;;26.33;17.67;;;13.40;92.70;;;;;;5034224;28;20021;-77
2024/03/21 00:07:34;;;;;;;30.05;17.70;;;13.30;93.00;;;;;;5017913;28;20075;-77
2024/03/21 00:10:00;;;;;;;28.77;17.65;;;13.30;92.90;;;;;;5017608;28;20113;-78
2024/03/21 00:12:26;;;;;;;29.75;17.95;;;13.30;92.90;;;;;;5017916;28;20117;-77
2024/03/21 00:14:52;;;;;;;30.02;18.45;;;13.30;93.00;;;;;;5017798;28;20026;-77
2024/03/21 00:17:18;;;;;;;30.23;18.92;;;13.30;93.10;;;;;;5017608;28;20049;-77
2024/03/21 00:19:44;;;;;;;28.02;18.13;;;13.20;93.10;;;;;;5017690;28;20556;-77
2024/03/21 00:22:09;;;;;;;29.42;18.70;;;13.20;93.30;;;;;;5017654;28;20085;-77
2024/03/21 00:24:38;;;;;;;27.10;17.42;;;13.20;93.40;;;;;;5022378;28;20079;-77
2024/03/21 00:27:07;;;;;;;31.35;18.88;;;13.10;93.50;;;;;;5034111;28;20030;-77
2024/03/21 00:29:33;;;;;;;33.53;18.63;;;13.10;93.60;;;;;;5017572;28;20022;-77
2024/03/21 00:32:02;;;;;;;26.48;17.25;;;13.10;93.80;;;;;;5023561;28;20025;-77
2024/03/21 00:34:27;;;;;;;30.98;18.42;;;13.10;93.80;;;;;;5033961;28;20022;-77
2024/03/21 00:36:53;;;;;;;32.78;18.92;;;13.10;93.90;;;;;;5016253;28;20072;-77
2024/03/21 00:39:19;;;;;;;31.50;19.70;;;13.10;93.90;;;;;;5020331;28;20092;-77
2024/03/21 00:41:48;;;;;;;30.55;18.77;;;13.00;94.00;;;;;;5022820;28;20038;-77
2024/03/21 00:44:14;;;;;;;33.83;19.77;;;13.00;94.20;;;;;;5014584;28;20033;-77
2024/03/21 00:46:39;;;;;;;32.88;19.30;;;13.00;94.30;;;;;;5015546;28;20033;-77
2024/03/21 00:49:06;;;;;;;30.10;19.05;;;12.90;94.40;;;;;;5014463;28;20030;-77
2024/03/21 00:51:32;;;;;;;32.53;19.70;;;12.90;94.50;;;;;;5015306;28;20030;-77
2024/03/21 00:53:58;;;;;;;31.60;19.30;;;12.90;94.60;;;;;;5015371;28;20084;-77
2024/03/21 00:56:24;;;;;;;32.35;20.20;;;12.90;94.70;;;;;;5031312;28;20036;-77
2024/03/21 00:58:50;;;;;;;35.47;20.17;;;12.80;94.80;;;;;;5025243;28;20492;-76
2024/03/21 01:01:16;;;;;;;33.70;21.25;;;12.80;94.90;;;;;;5013799;28;20052;-77
2024/03/21 01:03:43;;;;;;;35.80;21.65;;;12.80;95.00;;;;;;5014190;28;20014;-76
2024/03/21 01:06:09;;;;;;;30.25;19.73;;;12.80;95.10;;;;;;5031921;28;20030;-77
2024/03/21 01:08:34;;;;;;;32.25;20.38;;;12.70;95.20;;;;;;5030684;28;20026;-77
2024/03/21 01:11:00;;;;;;;35.80;21.80;;;12.70;95.40;;;;;;5015181;28;20041;-77
2024/03/21 01:13:26;;;;;;;34.75;21.23;;;12.70;95.40;;;;;;5031953;28;20029;-76
2024/03/21 01:15:51;;;;;;;36.03;22.75;;;12.60;95.50;;;;;;5023711;28;20026;-77
2024/03/21 01:18:17;;;;;;;38.92;23.23;;;12.60;95.70;;;;;;5013907;28;20497;-76
2024/03/21 01:20:43;;;;;;;33.28;22.70;;;12.60;95.80;;;;;;5014874;28;20528;-76
2024/03/21 01:23:09;;;;;;;45.85;24.92;;;12.60;95.80;;;;;;5013720;28;20026;-76
2024/03/21 01:25:35;;;;;;;37.40;25.02;;;12.60;96.00;;;;;;5030405;28;20018;-76
2024/03/21 01:28:02;;;;;;;36.22;23.85;;;12.60;96.30;;;;;;5030138;28;20581;-76
2024/03/21 01:30:33;;;;;;;37.53;24.65;;;12.60;96.20;;;;;;5014146;28;20547;-76
2024/03/21 01:33:00;;;;;;;34.25;23.88;;;12.50;96.10;;;;;;5029752;28;20014;-77
2024/03/21 01:35:27;;;;;;;34.70;23.42;;;12.50;96.10;;;;;;5030155;28;20026;-77
2024/03/21 01:37:56;;;;;;;33.03;22.08;;;12.50;96.20;;;;;;5029953;28;20026;-77
2024/03/21 01:40:21;;;;;;;35.35;24.33;;;12.50;96.40;;;;;;5012736;28;20037;-78
2024/03/21 01:42:49;;;;;;;32.53;21.00;;;12.50;96.50;;;;;;5016530;28;20381;-77
2024/03/21 01:45:15;;;;;;;34.70;21.80;;;12.50;96.60;;;;;;5021735;28;20116;-77
2024/03/21 01:47:42;;;;;;;36.97;24.40;;;12.50;96.70;;;;;;5014247;28;20026;-77
2024/03/21 01:50:08;;;;;;;33.38;22.73;;;12.40;96.80;;;;;;5013061;28;20433;-77
2024/03/21 01:52:36;;;;;;;36.90;22.30;;;12.50;96.90;;;;;;5012896;28;20021;-77
2024/03/21 01:55:03;;;;;;;37.15;23.02;;;12.40;97.10;;;;;;5014237;28;20030;-77
2024/03/21 01:57:29;;;;;;;34.20;22.67;;;12.50;97.20;;;;;;5028927;28;20393;-77
2024/03/21 01:59:58;;;;;;;33.10;22.27;;;12.50;97.40;;;;;;5029185;28;20037;-77
2024/03/21 02:02:26;;;;;;;39.00;23.92;;;12.40;97.20;;;;;;5012886;28;20040;-77
2024/03/21 02:04:53;;;;;;;37.75;23.40;;;12.40;97.20;;;;;;5029080;28;20064;-77
2024/03/21 02:07:18;;;;;;;36.17;23.73;;;12.40;97.30;;;;;;5012950;28;20084;-77
2024/03/21 02:09:45;;;;;;;41.33;24.00;;;12.30;97.40;;;;;;5029656;28;20018;-77
2024/03/21 02:12:11;;;;;;;41.95;24.30;;;12.30;97.50;;;;;;5012962;28;20053;-77
2024/03/21 02:14:38;;;;;;;33.63;23.85;;;12.30;97.60;;;;;;5013871;28;20054;-77
2024/03/21 02:17:05;;;;;;;39.03;24.35;;;12.30;97.70;;;;;;5013933;28;20028;-77
2024/03/21 02:19:31;;;;;;;39.70;23.80;;;12.20;97.80;;;;;;5013103;28;20068;-77
2024/03/21 02:24:41;;;;;;;;;;;12.20;98.00;;;;;;5022560;28;20039;-76
2024/03/21 02:27:07;;;;;;;38.28;22.02;;;12.20;98.00;;;;;;5031457;28;19984;-76
2024/03/21 02:29:32;;;;;;;34.45;22.67;;;12.10;98.10;;;;;;5012272;28;20044;-76
2024/03/21 02:31:58;;;;;;;41.47;24.75;;;12.10;98.20;;;;;;5011828;28;20427;-76
2024/03/21 02:34:24;;;;;;;38.33;25.42;;;12.00;98.30;;;;;;5013772;28;20026;-76
2024/03/21 02:36:49;;;;;;;38.50;25.70;;;12.00;98.60;;;;;;5015844;28;20386;-76
2024/03/21 02:39:16;;;;;;;39.30;24.95;;;12.00;98.70;;;;;;5022280;28;20057;-76
2024/03/21 02:41:42;;;;;;;35.92;23.85;;;11.90;98.90;;;;;;5012373;28;20360;-77
2024/03/21 02:44:08;;;;;;;33.40;22.20;;;11.90;99.30;;;;;;5013130;28;20105;-76
2024/03/21 02:46:33;;;;;;;34.30;22.58;;;12.00;99.60;;;;;;5028607;28;20063;-76
2024/03/21 02:48:59;;;;;;;29.67;20.42;;;11.90;99.50;;;;;;5018738;28;20022;-76
2024/03/21 02:51:25;;;;;;;30.27;19.75;;;11.90;99.50;;;;;;5028533;28;20018;-75
2024/03/21 02:53:50;;;;;;;32.72;21.50;;;11.80;99.80;;;;;;5013564;28;20017;-76
2024/03/21 02:56:17;;;;;;;34.10;20.73;;;11.90;99.90;;;;;;5013301;28;20029;-76
2024/03/21 02:58:42;;;;;;;29.90;18.77;;;11.90;99.90;;;;;;5012788;28;20075;-76
2024/03/21 03:01:08;;;;;;;28.58;18.83;;;11.90;99.90;;;;;;5012799;28;20026;-76
2024/03/21 03:03:34;;;;;;;31.95;20.25;;;11.90;99.90;;;;;;5012193;28;20038;-76
2024/03/21 03:05:59;;;;;;;30.13;19.17;;;11.90;99.90;;;;;;5011923;28;20405;-76
2024/03/21 03:08:25;;;;;;;28.27;17.63;;;11.90;99.90;;;;;;5015395;28;20017;-77
2024/03/21 03:10:50;;;;;;;26.75;18.35;;;11.90;99.90;;;;;;5021845;28;20026;-77
2024/03/21 03:13:16;;;;;;;29.67;19.00;;;12.00;99.90;;;;;;5028887;28;20018;-77
2024/03/21 03:15:41;;;;;;;26.20;17.02;;;11.90;99.90;;;;;;5020410;28;20129;-76
2024/03/21 03:18:07;;;;;;;28.80;17.08;;;11.90;99.90;;;;;;5017790;28;20496;-76
2024/03/21 03:20:33;;;;;;;29.33;19.08;;;11.90;99.90;;;;;;5016339;28;20022;-76
2024/03/21 03:22:58;;;;;;;29.60;19.90;;;11.90;99.90;;;;;;5027876;28;20493;-76
2024/03/21 03:25:24;;;;;;;28.38;19.38;;;11.90;99.90;;;;;;5021448;28;20032;-76
2024/03/21 03:27:50;;;;;;;31.38;20.63;;;11.90;99.90;;;;;;5028018;28;20014;-76
2024/03/21 03:30:15;;;;;;;31.50;20.23;;;11.80;99.90;;;;;;5022395;28;20033;-76
2024/03/21 03:32:47;;;;;;;31.40;20.55;;;11.80;99.90;;;;;;5011382;28;20492;-76
2024/03/21 03:35:39;;;;;;;32.85;19.70;;;11.80;99.90;;;;;;5015167;28;20449;-76
2024/03/21 03:38:05;;;;;;;32.90;19.25;;;11.80;99.90;;;;;;5031411;28;20026;-76
2024/03/21 03:40:31;;;;;;;29.25;19.42;;;11.70;99.90;;;;;;5030861;28;20408;-76
2024/03/21 03:42:56;;;;;;;31.52;19.98;;;11.70;99.90;;;;;;5032661;28;20026;-76
2024/03/21 03:45:22;;;;;;;30.80;20.67;;;11.60;99.90;;;;;;5031202;28;20028;-76
2024/03/21 03:47:48;;;;;;;32.58;20.88;;;11.50;99.90;;;;;;5033141;28;20461;-76
2024/03/21 03:50:13;;;;;;;29.88;19.50;;;11.50;99.90;;;;;;5032365;28;20025;-77
2024/03/21 03:52:39;;;;;;;34.28;22.08;;;11.40;99.90;;;;;;5031550;28;20033;-77
2024/03/21 03:55:05;;;;;;;34.73;23.77;;;11.40;99.90;;;;;;5029023;28;20105;-77
2024/03/21 03:57:30;;;;;;;40.25;24.15;;;11.40;99.90;;;;;;5026863;28;20025;-77
2024/03/21 03:59:58;;;;;;;37.97;24.53;;;11.30;99.90;;;;;;5031278;28;20021;-77
2024/03/21 04:02:24;;;;;;;38.57;24.13;;;11.30;99.90;;;;;;5031376;28;20040;-77
2024/03/21 04:04:50;;;;;;;36.10;23.37;;;11.30;99.90;;;;;;5029974;28;20390;-77
2024/03/21 04:07:16;;;;;;;38.10;25.03;;;11.30;99.90;;;;;;5023196;28;20022;-77
2024/03/21 04:09:41;;;;;;;35.47;22.93;;;11.30;99.90;;;;;;5023749;28;20534;-77
2024/03/21 04:12:07;;;;;;;39.77;25.30;;;11.30;99.90;;;;;;5013406;28;20029;-77
2024/03/21 04:14:33;;;;;;;41.72;26.25;;;11.30;99.90;;;;;;5026558;28;20508;-77
2024/03/21 04:16:58;;;;;;;38.42;25.60;;;11.20;99.90;;;;;;5022261;28;20025;-77
2024/03/21 04:19:24;;;;;;;40.63;24.55;;;11.20;99.90;;;;;;5031390;28;20018;-77
2024/03/21 04:21:50;;;;;;;38.58;23.67;;;11.20;99.90;;;;;;5016322;28;20080;-77
2024/03/21 04:24:16;;;;;;;29.63;20.93;;;11.20;99.90;;;;;;5026105;28;20527;-77
2024/03/21 04:26:42;;;;;;;28.88;19.70;;;11.20;99.90;;;;;;5031302;28;20022;-77
2024/03/21 04:29:08;;;;;;;30.05;19.67;;;11.20;99.90;;;;;;5016010;28;20018;-77
2024/03/21 04:31:34;;;;;;;28.27;19.38;;;11.20;99.90;;;;;;5014043;28;20088;-76
2024/03/21 04:34:00;;;;;;;30.58;19.50;;;11.20;99.90;;;;;;5026143;28;20025;-77
2024/03/21 04:36:25;;;;;;;27.60;17.70;;;11.10;99.90;;;;;;5019179;28;20029;-77
2024/03/21 04:38:51;;;;;;;24.27;16.63;;;11.10;99.90;;;;;;5020438;28;20045;-77
2024/03/21 04:41:17;;;;;;;25.53;16.53;;;11.20;99.90;;;;;;5015884;28;20105;-77
2024/03/21 04:43:43;;;;;;;24.67;15.68;;;11.20;99.90;;;;;;5015722;28;20022;-77
2024/03/21 04:46:08;;;;;;;22.17;13.23;;;11.20;99.90;;;;;;5014749;28;20060;-77
2024/03/21 04:48:34;;;;;;;17.08;11.65;;;11.20;99.90;;;;;;5014423;28;20127;-77
2024/03/21 04:50:59;;;;;;;15.15;10.90;;;11.20;99.90;;;;;;5014200;28;20497;-77
2024/03/21 04:53:25;;;;;;;16.45;9.40;;;11.20;99.90;;;;;;5015012;28;20497;-77
2024/03/21 04:55:51;;;;;;;11.90;7.65;;;11.20;99.90;;;;;;5017789;28;20021;-77
2024/03/21 04:58:17;;;;;;;10.38;6.65;;;11.20;99.90;;;;;;5024179;28;20488;-77
2024/03/21 05:00:42;;;;;;;12.30;6.85;;;11.10;99.90;;;;;;5015358;28;20109;-77
2024/03/21 05:03:08;;;;;;;11.00;6.07;;;11.10;99.90;;;;;;5015287;28;20080;-77
2024/03/21 05:05:33;;;;;;;10.98;5.22;;;11.00;99.90;;;;;;5015152;28;20029;-77
2024/03/21 05:07:59;;;;;;;7.30;4.53;;;10.90;99.90;;;;;;5013969;28;20025;-77
2024/03/21 05:10:25;;;;;;;8.57;4.77;;;10.90;99.90;;;;;;5031045;28;20114;-76
2024/03/21 05:12:50;;;;;;;6.77;3.90;;;10.80;99.90;;;;;;5030382;28;20117;-77
2024/03/21 05:15:16;;;;;;;6.17;3.63;;;10.80;99.90;;;;;;5014515;28;20474;-77
2024/03/21 05:17:41;;;;;;;5.53;3.10;;;10.70;99.90;;;;;;5021378;28;20022;-77
2024/03/21 05:20:07;;;;;;;5.47;3.37;;;10.70;99.90;;;;;;5032703;28;20029;-77
2024/03/21 05:22:33;;;;;;;7.20;3.00;;;10.70;99.90;;;;;;5032461;28;20022;-77
2024/03/21 05:24:58;;;;;;;4.53;2.67;;;10.60;99.90;;;;;;5031127;28;20580;-77
2024/03/21 05:27:25;;;;;;;6.83;3.80;;;10.60;99.90;;;;;;5031214;28;20021;-77
2024/03/21 05:29:50;;;;;;;11.23;3.83;;;10.50;99.90;;;;;;5030267;28;20020;-77
2024/03/21 05:32:16;;;;;;;5.47;3.03;;;10.50;99.90;;;;;;5029477;28;20030;-77
2024/03/21 05:34:42;;;;;;;6.83;3.77;;;10.40;99.90;;;;;;5032440;28;20057;-77
2024/03/21 05:37:07;;;;;;;5.90;3.63;;;10.40;99.90;;;;;;5014365;28;20441;-77
2024/03/21 05:39:33;;;;;;;5.37;3.67;;;10.40;99.90;;;;;;5013524;28;20077;-77
2024/03/21 05:41:58;;;;;;;6.87;4.10;;;10.40;99.90;;;;;;5014650;28;20026;-77
2024/03/21 05:44:24;;;;;;;6.97;4.40;;;10.40;99.90;;;;;;5029570;28;20033;-77
2024/03/21 05:46:52;;;;;;;7.47;4.00;;;10.40;99.90;;;;;;5029882;28;20481;-77
2024/03/21 05:49:18;;;;;;;7.23;4.70;;;10.40;99.90;;;;;;5016887;28;20022;-77
2024/03/21 05:51:44;;;;;;;8.07;5.07;;;10.50;99.90;;;;;;5029494;28;20029;-77
2024/03/21 05:54:10;;;;;;;11.53;5.97;;;10.50;99.90;;;;;;5014253;28;20026;-76
2024/03/21 05:56:36;;;;;;;10.63;6.00;;;10.50;99.90;;;;;;5014339;28;20022;-77
2024/03/21 05:59:03;;;;;;;9.13;6.23;;;10.40;99.90;;;;;;5014224;28;20025;-77
2024/03/21 06:01:32;;;;;;;8.90;5.80;;;10.40;99.90;;;;;;5014360;28;20026;-77
2024/03/21 06:03:59;;;;;;;11.40;7.17;;;10.40;99.90;;;;;;5014223;28;20026;-77
2024/03/21 06:06:25;;;;;;;10.77;6.73;;;10.40;99.90;;;;;;5012692;28;20478;-77
2024/03/21 06:08:50;;;;;;;9.50;5.77;;;10.40;99.90;;;;;;5014434;28;20104;-77
2024/03/21 06:11:16;;;;;;;8.60;5.63;;;10.30;99.90;;;;;;5013952;28;20398;-77
2024/03/21 06:13:42;;;;;;;9.77;5.37;;;10.30;99.90;;;;;;5014244;28;20473;-77
2024/03/21 06:16:07;;;;;;;11.03;4.70;;;10.30;99.90;;;;;;5012851;28;20072;-77
2024/03/21 06:18:33;;;;;;;8.20;4.23;;;10.20;99.90;;;;;;5012772;28;20022;-77
2024/03/21 06:20:59;;;;;;;5.30;3.17;;;10.30;99.90;;;;;;5013666;28;20038;-77
2024/03/21 06:23:24;;;;;;;4.60;2.37;;;10.30;99.90;;;;;;5015120;28;20444;-77
2024/03/21 06:25:50;;;;;;;4.83;2.10;;;10.30;99.90;;;;;;5029754;28;20029;-77
2024/03/21 06:28:16;;;;;;;2.73;1.50;;;10.30;99.70;;;;;;5045430;28;20497;-77
2024/03/21 06:30:43;;;;;;;4.17;1.33;;;10.30;99.70;;;;;;5031513;28;20030;-77
2024/03/21 06:33:08;;;;;;;4.90;1.30;;;10.30;99.60;;;;;;5027891;28;20030;-77
2024/03/21 06:35:34;;;;;;;1.93;0.90;;;10.30;99.50;;;;;;5027870;28;20029;-77
2024/03/21 06:38:00;;;;;;;2.17;1.00;;;10.30;99.30;;;;;;5029879;28;20030;-77
2024/03/21 06:40:26;;;;;;;2.93;0.80;;;10.30;99.20;;;;;;5029976;28;20425;-77
2024/03/21 06:42:52;;;;;;;4.50;1.03;;;10.30;99.20;;;;;;5028268;28;20390;-77
2024/03/21 06:45:18;;;;;;;2.03;0.70;;;10.30;99.20;;;;;;5030695;28;20432;-77
2024/03/21 06:47:45;;;;;;;3.10;0.77;;;10.30;99.20;;;;;;5023606;28;20025;-77
2024/03/21 06:50:12;;;;;;;4.27;0.67;;;10.30;99.10;;;;;;5018072;28;20030;-77
2024/03/21 06:52:38;;;;;;;3.90;0.60;;;10.40;99.10;;;;;;5013386;28;20030;-78
2024/03/21 06:55:04;;;;;;;2.93;0.77;;;10.40;98.90;;;;;;5030473;28;20108;-78
2024/03/21 06:57:31;;;;;;;3.50;0.60;;;10.40;98.90;;;;;;5028422;28;20057;-78
2024/03/21 06:59:57;;;;;;;4.93;0.63;;;10.40;98.80;;;;;;5011983;28;20045;-78
2024/03/21 07:02:23;;;;;;;4.77;0.93;;;10.50;98.70;;;;;;5011887;28;20054;-77
2024/03/21 07:04:48;;;;;;;5.60;1.57;;;10.50;98.30;;;;;;5011728;28;20032;-78
2024/03/21 07:07:14;;;;;;;3.40;0.83;;;10.50;98.20;;;;;;5011878;28;20022;-78
2024/03/21 07:09:40;;;;;;;3.30;0.80;;;10.50;97.70;;;;;;5019737;28;20024;-78
2024/03/21 07:12:06;;;;;;;3.93;0.73;;;10.40;97.50;;;;;;5024091;28;20428;-78
2024/03/21 07:14:34;;;;;;;3.27;0.63;;;10.40;97.40;;;;;;5028235;28;20547;-78
2024/03/21 07:17:00;;;;;;;3.10;0.80;;;10.40;97.40;;;;;;5019568;28;20049;-78
2024/03/21 07:19:33;;;;;;;4.27;0.80;;;10.40;97.30;;;;;;5015494;28;20021;-78
2024/03/21 07:21:59;;;;;;;5.80;0.90;;;10.40;97.40;;;;;;5027833;28;20022;-78
2024/03/21 07:24:25;;;;;;;4.87;0.80;;;10.30;97.10;;;;;;5023615;28;20377;-77
2024/03/21 07:26:51;;;;;;;7.67;0.90;;;10.40;97.10;;;;;;5011434;28;20025;-77
2024/03/21 07:29:17;;;;;;;6.53;0.73;;;10.30;97.10;;;;;;5011325;28;20022;-77
2024/03/21 07:31:42;;;;;;;5.13;0.80;;;10.30;97.00;;;;;;5027221;28;20014;-77
2024/03/21 07:34:08;;;;;;;3.17;0.75;;;10.30;97.00;;;;;;5027627;28;20497;-77
2024/03/21 07:36:33;;;;;;;6.90;0.80;;;10.30;96.80;;;;;;5013540;28;20097;-77
2024/03/21 07:39:00;;;;;;;9.00;1.03;;;10.30;96.80;;;;;;5027457;28;20042;-77
2024/03/21 07:41:26;;;;;;;4.60;0.70;;;10.30;96.80;;;;;;5012990;28;20569;-77
2024/03/21 07:43:51;;;;;;;6.00;0.90;;;10.30;96.70;;;;;;5028017;28;20053;-77
2024/03/21 07:46:18;;;;;;;5.07;0.60;;;10.30;96.70;;;;;;5029208;28;20026;-77
2024/03/21 07:48:44;;;;;;;3.10;0.70;;;10.40;96.70;;;;;;5016294;28;20022;-77
2024/03/21 07:51:10;;;;;;;5.43;0.90;;;10.40;96.70;;;;;;5028187;28;20109;-77
2024/03/21 07:53:35;;;;;;;5.43;0.60;;;10.50;97.10;;;;;;5035149;28;20113;-77
2024/03/21 07:56:01;;;;;;;4.70;0.67;;;10.50;96.60;;;;;;5035052;28;20413;-77
2024/03/21 07:58:27;;;;;;;3.70;1.00;;;10.50;96.60;;;;;;5036326;28;20069;-77
2024/03/21 08:00:53;;;;;;;3.73;0.70;;;10.60;96.40;;;;;;5034799;28;20029;-77
2024/03/21 08:03:19;;;;;;;5.00;1.10;;;10.60;96.20;;;;;;5034752;28;20021;-77
2024/03/21 08:05:44;;;;;;;4.27;0.70;;;10.60;96.60;;;;;;5035170;28;20021;-77
2024/03/21 08:08:10;;;;;;;4.43;0.60;;;10.60;96.20;;;;;;5029721;28;20025;-76
2024/03/21 08:10:36;;;;;;;4.38;0.57;;;10.60;96.20;;;;;;5019767;28;20022;-77
2024/03/21 08:13:02;;;;;;;5.83;0.80;;;10.70;96.20;;;;;;5031625;28;20156;-76
2024/03/21 08:15:28;;;;;;;5.97;0.70;;;10.70;96.20;;;;;;5015936;28;20037;-76
2024/03/21 08:17:53;;;;;;;5.47;0.90;;;10.80;96.20;;;;;;5016074;28;20022;-76
2024/03/21 08:20:19;;;;;;;7.40;0.80;;;10.80;96.00;;;;;;5014961;28;20025;-76
2024/03/21 08:22:45;;;;;;;3.93;0.60;;;10.90;96.00;;;;;;5016896;28;20028;-78
2024/03/21 08:25:11;;;;;;;7.93;0.90;;;10.90;95.90;;;;;;5023392;28;20054;-76
2024/03/21 08:27:37;;;;;;;5.23;0.70;;;10.90;95.90;;;;;;5016144;28;20053;-79
2024/03/21 08:30:04;;;;;;;4.85;0.80;;;11.00;95.80;;;;;;5031342;28;20109;-77
2024/03/21 08:32:30;;;;;;;3.83;0.80;;;11.10;95.80;;;;;;5015594;28;20053;-78
2024/03/21 08:34:56;;;;;;;6.63;0.85;;;11.20;95.80;;;;;;5014569;28;20029;-78
2024/03/21 08:37:22;;;;;;;7.45;0.80;;;11.30;95.70;;;;;;5014720;28;20028;-78
2024/03/21 08:39:48;;;;;;;5.57;0.77;;;11.30;95.60;;;;;;5015850;28;20038;-78
2024/03/21 08:42:14;;;;;;;4.78;0.88;;;11.40;95.50;;;;;;5031077;28;20061;-78
2024/03/21 08:44:40;;;;;;;4.45;0.93;;;11.40;95.50;;;;;;5027385;28;20057;-78
2024/03/21 08:47:05;;;;;;;6.32;1.05;;;11.50;95.30;;;;;;5030767;28;20150;-78
2024/03/21 08:49:31;;;;;;;5.35;0.95;;;11.50;95.10;;;;;;5014591;28;20030;-78
2024/03/21 08:51:57;;;;;;;5.55;1.17;;;11.50;94.60;;;;;;5021164;28;20029;-78
2024/03/21 08:54:24;;;;;;;7.03;1.00;;;11.50;94.40;;;;;;5030694;28;20024;-78
2024/03/21 08:56:51;;;;;;;6.03;0.85;;;11.50;94.20;;;;;;5030415;28;20060;-78
2024/03/21 08:59:16;;;;;;;9.52;1.08;;;11.50;94.00;;;;;;5016597;28;20028;-78
2024/03/21 09:01:42;;;;;;;4.43;0.57;;;11.50;94.00;;;;;;5023783;28;20026;-78
2024/03/21 09:04:08;;;;;;;10.52;0.90;;;11.50;94.00;;;;;;5024367;28;20033;-78
2024/03/21 09:06:33;;;;;;;5.30;0.80;;;11.50;93.70;;;;;;5013982;28;20022;-78
2024/03/21 09:09:01;;;;;;;4.93;1.10;;;11.60;93.60;;;;;;5015315;28;20458;-76
2024/03/21 09:11:28;;;;;;;7.00;1.00;;;11.60;93.40;;;;;;5031035;28;20027;-78
2024/03/21 09:13:53;;;;;;;6.47;1.13;;;11.60;93.20;;;;;;5030312;28;20026;-76
2024/03/21 09:16:19;;;;;;;3.70;0.77;;;11.60;93.30;;;;;;5013868;28;20532;-77
2024/03/21 09:18:45;;;;;;;3.65;0.80;;;11.70;93.40;;;;;;5024455;28;20018;-77
2024/03/21 09:21:12;;;;;;;3.28;0.77;;;11.80;93.50;;;;;;5025729;28;20026;-76
2024/03/21 09:23:38;;;;;;;8.35;1.02;;;11.90;93.50;;;;;;5015203;28;20449;-77
2024/03/21 09:26:04;;;;;;;4.88;0.77;;;12.00;93.50;;;;;;5032841;28;20017;-77
2024/03/21 09:28:30;;;;;;;4.60;0.60;;;12.10;93.40;;;;;;5018652;28;20429;-77
2024/03/21 09:30:56;;;;;;;4.05;0.93;;;12.30;93.40;;;;;;5013431;28;20029;-77
2024/03/21 09:33:21;;;;;;;7.32;1.00;;;12.50;93.30;;;;;;5014707;28;20029;-77
2024/03/21 09:36:00;;;;;;;4.88;0.63;;;12.60;93.20;;;;;;5032516;28;20498;-78
2024/03/21 09:38:26;;;;;;;5.13;1.08;;;12.70;92.90;;;;;;5025705;28;20058;-77
2024/03/21 09:40:52;;;;;;;4.25;0.68;;;12.70;92.70;;;;;;5030292;28;20133;-76
2024/03/21 09:43:18;;;;;;;4.20;0.98;;;12.80;92.00;;;;;;5029742;28;20474;-77
2024/03/21 09:45:45;;;;;;;5.28;0.77;;;12.80;91.70;;;;;;5030113;28;20029;-77
2024/03/21 09:48:11;;;;;;;6.82;1.33;;;12.80;91.30;;;;;;5023056;28;20105;-77
2024/03/21 09:50:41;;;;;;;4.95;1.23;;;12.80;90.80;;;;;;5030164;28;20022;-76
2024/03/21 09:53:11;;;;;;;7.57;1.05;;;12.80;90.90;;;;;;5014663;28;20026;-77
2024/03/21 09:55:38;;;;;;;6.93;0.90;;;12.80;90.80;;;;;;5030629;28;20018;-77
2024/03/21 09:58:09;;;;;;;5.57;0.88;;;12.90;90.80;;;;;;5021392;28;20033;-77
2024/03/21 10:00:35;;;;;;;4.28;0.77;;;13.00;90.70;;;;;;5012840;28;20364;-77
2024/03/21 10:03:02;;;;;;;5.75;0.90;;;13.10;90.50;;;;;;5023962;28;20018;-77
2024/03/21 10:05:27;;;;;;;5.18;1.13;;;13.20;90.60;;;;;;5031807;28;20511;-77
2024/03/21 10:07:53;;;;;;;2.83;0.60;;;13.40;90.60;;;;;;5014594;28;20109;-77
2024/03/21 10:10:20;;;;;;;6.00;1.13;;;13.60;90.60;;;;;;5023748;28;20022;-79
2024/03/21 10:12:49;;;;;;;4.30;0.70;;;13.80;90.50;;;;;;5013637;28;20498;-79
2024/03/21 10:15:17;;;;;;;4.68;0.70;;;14.10;90.40;;;;;;5019287;28;20037;-79
2024/03/21 10:18:04;;;;;;;4.03;0.70;;;14.30;90.20;;;;;;5022799;28;20035;-79
2024/03/21 10:20:31;;;;;;;4.00;0.70;;;14.40;89.40;;;;;;4995191;28;20485;-79
2024/03/21 10:22:58;;;;;;;3.60;0.75;;;14.50;88.60;;;;;;4995168;28;20124;-79
2024/03/21 10:25:24;;;;;;;4.68;1.48;;;14.50;87.80;;;;;;5017581;28;20032;-78
2024/03/21 10:27:50;;;;;;;3.90;1.08;;;14.50;87.20;;;;;;5024358;28;20034;-78
2024/03/21 10:30:20;;;;;;;6.75;1.30;;;14.50;86.80;;;;;;5014572;28;20069;-78
2024/03/21 10:32:47;;;;;;;2.42;0.80;;;14.50;85.70;;;;;;5010799;28;20433;-79
2024/03/21 10:35:17;;;;;;;6.35;1.40;;;14.40;85.20;;;;;;4994920;28;20034;-78
2024/03/21 10:37:43;;;;;;;5.45;0.93;;;14.40;83.60;;;;;;5021933;28;20041;-78
2024/03/21 10:40:12;;;;;;;6.57;1.00;;;14.40;84.20;;;;;;5016018;28;20058;-78
2024/03/21 10:42:42;;;;;;;4.90;0.73;;;14.60;84.10;;;;;;5003630;28;20540;-79
2024/03/21 10:45:12;;;;;;;3.65;0.65;;;14.90;84.60;;;;;;5020102;28;20029;-77
2024/03/21 10:47:49;;;;;;;2.85;0.60;;;15.20;84.20;;;;;;5010922;28;20520;-77
2024/03/21 10:50:22;;;;;;;3.55;0.60;;;15.30;82.80;;;;;;5021971;28;20045;-77
2024/03/21 10:52:52;;;;;;;3.05;0.80;;;15.50;82.10;;;;;;4994839;28;20422;-77
2024/03/21 10:55:19;;;;;;;5.72;1.02;;;15.70;81.10;;;;;;4994490;28;20101;-78
2024/03/21 10:57:54;;;;;;;6.00;0.75;;;15.80;79.90;;;;;;4994472;28;20029;-77
2024/03/21 11:00:22;;;;;;;6.07;0.88;;;15.90;79.40;;;;;;4994759;28;20033;-78
2024/03/21 11:02:59;;;;;;;4.45;0.68;;;16.20;79.40;;;;;;4994650;28;20025;-78
2024/03/21 11:05:27;;;;;;;3.72;0.82;;;16.60;79.90;;;;;;5015336;28;20056;-79
2024/03/21 11:07:53;;;;;;;6.68;0.93;;;16.90;79.20;;;;;;5018119;28;20053;-78
2024/03/21 11:10:22;;;;;;;6.30;1.33;;;17.20;77.20;;;;;;5012006;28;20080;-78
2024/03/21 11:12:48;;;;;;;5.53;0.98;;;17.20;75.70;;;;;;5011914;28;20014;-78
2024/03/21 11:15:14;;;;;;;7.03;1.00;;;17.40;75.50;;;;;;5011742;28;20164;-78
2024/03/21 11:17:41;;;;;;;2.67;0.60;;;17.70;75.90;;;;;;5013045;28;20060;-77
2024/03/21 11:20:09;;;;;;;3.15;0.80;;;18.00;73.80;;;;;;5030175;28;20019;-77
2024/03/21 11:22:35;;;;;;;4.28;0.90;;;18.30;73.00;;;;;;5018314;28;20034;-77
2024/03/21 11:25:02;;;;;;;4.82;1.05;;;18.60;71.70;;;;;;5012643;28;20025;-77
2024/03/21 11:27:28;;;;;;;4.90;0.90;;;18.50;69.20;;;;;;5022023;28;20033;-77
2024/03/21 11:29:53;;;;;;;5.43;0.90;;;18.30;68.30;;;;;;5020621;28;20031;-77
2024/03/21 11:32:28;;;;;;;6.28;0.88;;;18.10;68.30;;;;;;5017794;28;20026;-78
2024/03/21 11:34:55;;;;;;;5.95;1.10;;;18.30;69.00;;;;;;5014399;28;20093;-77
2024/03/21 11:37:20;;;;;;;4.32;0.98;;;18.40;68.00;;;;;;5021153;28;20073;-77
2024/03/21 11:39:46;;;;;;;4.72;0.70;;;18.50;68.00;;;;;;5036104;28;20045;-77
2024/03/21 11:42:12;;;;;;;5.88;1.10;;;18.50;67.10;;;;;;5023357;28;20485;-78
2024/03/21 11:44:42;;;;;;;4.78;0.75;;;18.30;66.50;;;;;;5029071;28;20101;-79
2024/03/21 11:47:13;;;;;;;5.60;1.10;;;18.10;66.70;;;;;;5020932;28;20037;-77
2024/03/21 11:49:49;;;;;;;6.78;1.02;;;17.90;66.50;;;;;;5027957;28;20498;-77
2024/03/21 11:52:16;;;;;;;3.65;0.60;;;17.80;66.50;;;;;;5011469;28;20026;-78
2024/03/21 11:54:45;;;;;;;3.15;0.80;;;17.80;66.70;;;;;;5012652;28;20101;-78
2024/03/21 11:57:15;;;;;;;4.72;0.85;;;18.00;66.80;;;;;;5027853;28;20053;-78
2024/03/21 11:59:42;;;;;;;5.30;1.00;;;18.20;66.70;;;;;;5023212;28;20056;-78
2024/03/21 12:02:11;;;;;;;4.70;0.95;;;18.20;66.10;;;;;;5011243;28;20033;-79
2024/03/21 12:04:36;;;;;;;4.13;0.60;;;18.10;65.70;;;;;;5025916;28;20018;-78
2024/03/21 12:07:02;;;;;;;5.15;0.85;;;18.00;65.00;;;;;;5014592;28;20053;-78
2024/03/21 12:09:28;;;;;;;5.65;0.82;;;18.00;65.80;;;;;;5027790;28;20112;-78
2024/03/21 12:11:54;;;;;;;3.95;0.85;;;18.30;65.50;;;;;;5011051;28;20014;-78
2024/03/21 12:14:19;;;;;;;5.75;1.13;;;18.30;64.80;;;;;;5012698;28;20040;-78
2024/03/21 12:16:45;;;;;;;6.03;1.08;;;18.20;64.30;;;;;;5011106;28;20018;-78
2024/03/21 12:19:11;;;;;;;4.60;0.95;;;18.10;64.40;;;;;;5028741;28;20037;-78
2024/03/21 12:21:36;;;;;;;4.40;1.35;;;18.10;65.10;;;;;;5025516;28;20489;-78
2024/03/21 12:24:02;;;;;;;6.25;1.00;;;18.30;65.10;;;;;;5019707;28;20376;-80
2024/03/21 12:26:28;;;;;;;6.05;1.23;;;18.50;64.80;;;;;;5028580;28;20018;-78
2024/03/21 12:28:53;;;;;;;4.47;1.00;;;18.60;64.40;;;;;;5022194;28;20068;-77
2024/03/21 12:31:19;;;;;;;5.00;1.27;;;18.60;63.50;;;;;;5024077;28;20473;-77
2024/03/21 12:33:45;;;;;;;6.38;1.17;;;18.30;63.70;;;;;;5029261;28;20041;-78
2024/03/21 12:36:11;;;;;;;6.25;0.90;;;18.00;63.80;;;;;;5024770;28;20363;-79